Time;durP1;ratioP1;P1;durP2;ratioP2;P2;SDS_P1;SDS_P2;PMS_P1;PMS_P2;Temp;Humidity;BMP_temperature;BMP_pressure;BME280_temperature;BME280_humidity;BME280_pressure;Samples;Min_cycle;Max_cycle;Signal;HPM_P1;HPM_P2
2022/04/20 00:01:55;;;;;;;7.30;6.07;;;;;;;;;;6153815;28;20721;-74
2022/04/20 00:05:16;;;;;;;6.70;5.93;;;;;;;;;;6153147;28;20242;-74
2022/04/20 00:08:38;;;;;;;11.17;6.73;;;;;;;;;;6141957;28;20227;-75
2022/04/20 00:11:59;;;;;;;10.50;6.63;;;;;;;;;;6152012;28;20236;-73
2022/04/20 00:15:19;;;;;;;7.63;6.13;;;;;;;;;;6154900;28;20824;-77
2022/04/20 00:18:40;;;;;;;6.33;5.73;;;;;;;;;;6153693;28;20649;-75
2022/04/20 00:22:00;;;;;;;7.57;6.77;;;;;;;;;;6151753;28;20258;-72
2022/04/20 00:25:22;;;;;;;8.43;7.63;;;;;;;;;;6145640;28;20226;-72
2022/04/20 00:28:43;;;;;;;8.33;7.47;;;;;;;;;;6156558;28;20674;-72
2022/04/20 00:32:03;;;;;;;10.63;8.17;;;;;;;;;;6151541;28;20231;-71
2022/04/20 00:35:24;;;;;;;7.83;7.13;;;;;;;;;;6153335;28;20621;-72
2022/04/20 00:38:45;;;;;;;7.70;6.93;;;;;;;;;;6155280;28;20372;-73
2022/04/20 00:42:07;;;;;;;8.87;6.93;;;;;;;;;;6153331;28;20238;-74
2022/04/20 00:45:29;;;;;;;8.60;7.17;;;;;;;;;;6145610;28;20315;-72
2022/04/20 00:48:51;;;;;;;7.60;6.40;;;;;;;;;;6128514;28;20235;-73
2022/04/20 00:52:13;;;;;;;7.87;6.63;;;;;;;;;;6148780;28;20230;-71
2022/04/20 00:55:33;;;;;;;7.97;7.17;;;;;;;;;;6155483;28;20231;-73
2022/04/20 00:59:01;;;;;;;10.50;7.23;;;;;;;;;;6149064;28;20676;-73
2022/04/20 01:02:22;;;;;;;8.47;7.77;;;;;;;;;;6136813;28;20254;-73
2022/04/20 01:05:45;;;;;;;8.00;7.27;;;;;;;;;;6151644;28;20238;-72
2022/04/20 01:09:26;;;;;;;9.97;8.60;;;;;;;;;;6149756;28;20230;-72
2022/04/20 01:13:10;;;;;;;9.40;8.53;;;;;;;;;;6137901;28;20242;-73
2022/04/20 01:16:58;;;;;;;9.40;8.50;;;;;;;;;;6146291;28;20791;-73
2022/04/20 01:20:40;;;;;;;9.80;8.83;;;;;;;;;;6149181;28;20234;-73
2022/04/20 01:24:21;;;;;;;8.83;7.80;;;;;;;;;;6148728;28;20373;-72
2022/04/20 01:28:01;;;;;;;10.40;9.17;;;;;;;;;;6151297;28;20230;-73
2022/04/20 01:31:48;;;;;;;13.10;9.30;;;;;;;;;;6124376;28;20234;-73
2022/04/20 01:35:19;;;;;;;12.17;9.90;;;;;;;;;;6149026;28;20230;-75
2022/04/20 01:38:42;;;;;;;9.17;8.17;;;;;;;;;;6142481;28;20238;-74
2022/04/20 01:42:11;;;;;;;9.13;8.27;;;;;;;;;;6130105;28;20251;-73
2022/04/20 01:45:40;;;;;;;9.23;8.37;;;;;;;;;;6122018;28;20644;-75
2022/04/20 01:49:04;;;;;;;9.20;8.27;;;;;;;;;;6146949;28;20297;-73
2022/04/20 01:52:42;;;;;;;8.80;7.90;;;;;;;;;;6150958;28;21085;-73
2022/04/20 01:56:25;;;;;;;8.43;7.60;;;;;;;;;;6124197;28;20242;-73
2022/04/20 02:00:04;;;;;;;9.80;7.93;;;;;;;;;;6148913;28;20230;-73
2022/04/20 02:03:50;;;;;;;8.53;7.63;;;;;;;;;;6140730;28;20234;-71
2022/04/20 02:07:11;;;;;;;9.30;8.40;;;;;;;;;;6146694;28;20223;-72
2022/04/20 02:10:37;;;;;;;8.70;7.57;;;;;;;;;;6149073;28;20258;-73
2022/04/20 02:14:00;;;;;;;8.80;8.00;;;;;;;;;;6132319;28;20617;-73
2022/04/20 02:17:21;;;;;;;8.07;7.40;;;;;;;;;;6133475;28;20234;-73
2022/04/20 02:20:49;;;;;;;7.77;7.07;;;;;;;;;;6148397;28;20233;-73
2022/04/20 02:24:11;;;;;;;9.67;8.07;;;;;;;;;;6135487;28;20238;-73
2022/04/20 02:27:31;;;;;;;8.20;7.47;;;;;;;;;;6151690;28;20253;-73
2022/04/20 02:30:53;;;;;;;9.63;7.23;;;;;;;;;;6133983;28;20396;-73
2022/04/20 02:34:14;;;;;;;9.43;7.73;;;;;;;;;;6135774;28;22001;-73
2022/04/20 02:37:35;;;;;;;9.30;8.33;;;;;;;;;;6153695;28;20230;-74
2022/04/20 02:40:56;;;;;;;8.40;7.57;;;;;;;;;;6145421;28;20299;-74
2022/04/20 02:44:17;;;;;;;10.70;8.20;;;;;;;;;;6113650;28;20818;-73
2022/04/20 02:47:39;;;;;;;8.83;7.30;;;;;;;;;;6134033;28;20238;-74
2022/04/20 02:50:59;;;;;;;11.20;6.77;;;;;;;;;;6152855;28;20230;-75
2022/04/20 02:54:21;;;;;;;10.00;9.10;;;;;;;;;;6134886;28;20234;-74
2022/04/20 02:57:41;;;;;;;8.30;6.73;;;;;;;;;;6153215;28;20246;-74
2022/04/20 03:01:03;;;;;;;8.23;6.87;;;;;;;;;;6153046;28;20246;-74
2022/04/20 03:04:34;;;;;;;8.17;6.77;;;;;;;;;;6139634;28;20289;-74
2022/04/20 03:07:55;;;;;;;7.13;6.43;;;;;;;;;;6135111;28;20234;-75
2022/04/20 03:11:16;;;;;;;12.17;10.97;;;;;;;;;;6154096;28;20234;-75
2022/04/20 03:14:40;;;;;;;18.93;16.93;;;;;;;;;;6137672;28;20291;-73
2022/04/20 03:18:01;;;;;;;8.03;7.23;;;;;;;;;;6152511;28;20243;-74
2022/04/20 03:21:23;;;;;;;6.67;5.93;;;;;;;;;;6134866;28;20805;-75
2022/04/20 03:24:47;;;;;;;6.97;6.27;;;;;;;;;;6118405;28;20239;-72
2022/04/20 03:28:37;;;;;;;10.07;7.57;;;;;;;;;;6127556;28;20235;-74
2022/04/20 03:31:58;;;;;;;8.83;7.33;;;;;;;;;;6131617;28;20322;-73
2022/04/20 03:35:20;;;;;;;8.50;6.67;;;;;;;;;;6144307;28;20243;-73
2022/04/20 03:38:42;;;;;;;6.57;6.07;;;;;;;;;;6129967;28;20363;-74
2022/04/20 03:42:03;;;;;;;8.20;6.07;;;;;;;;;;6129762;28;20231;-74
2022/04/20 03:45:24;;;;;;;8.00;6.73;;;;;;;;;;6131549;28;20227;-74
2022/04/20 03:48:45;;;;;;;7.13;6.47;;;;;;;;;;6132886;28;20231;-74
2022/04/20 03:52:06;;;;;;;7.80;5.93;;;;;;;;;;6133179;28;20334;-72
2022/04/20 03:55:29;;;;;;;6.77;6.13;;;;;;;;;;6136286;28;20290;-71
2022/04/20 03:58:50;;;;;;;6.93;6.23;;;;;;;;;;6150441;28;20242;-74
2022/04/20 04:02:11;;;;;;;7.13;6.20;;;;;;;;;;6152424;28;20579;-75
2022/04/20 04:05:37;;;;;;;6.53;5.90;;;;;;;;;;6153872;28;20242;-75
2022/04/20 04:09:14;;;;;;;7.93;6.33;;;;;;;;;;6134754;28;20222;-76
2022/04/20 04:12:36;;;;;;;9.17;6.33;;;;;;;;;;6151952;28;20231;-74
2022/04/20 04:15:58;;;;;;;6.20;5.70;;;;;;;;;;6150768;28;20223;-74
2022/04/20 04:19:21;;;;;;;7.13;5.47;;;;;;;;;;6127316;28;20636;-72
2022/04/20 04:22:47;;;;;;;7.13;6.43;;;;;;;;;;6139896;28;20246;-72
2022/04/20 04:26:24;;;;;;;6.67;6.03;;;;;;;;;;6114471;28;20222;-74
2022/04/20 04:29:48;;;;;;;6.13;5.47;;;;;;;;;;6152465;28;20250;-75
2022/04/20 04:33:08;;;;;;;6.40;5.20;;;;;;;;;;6137589;28;20230;-73
2022/04/20 04:36:30;;;;;;;5.83;4.73;;;;;;;;;;6150716;28;20235;-74
2022/04/20 04:39:53;;;;;;;6.57;4.87;;;;;;;;;;6149475;28;20643;-74
2022/04/20 04:43:14;;;;;;;7.00;5.33;;;;;;;;;;6138615;28;20234;-73
2022/04/20 04:50:26;;;;;;;6.03;5.33;;;;;;;;;;6152036;28;20680;-74
2022/04/20 04:53:47;;;;;;;5.57;4.67;;;;;;;;;;6155755;28;20660;-73
2022/04/20 04:57:16;;;;;;;5.63;5.03;;;;;;;;;;6142184;28;20234;-73
2022/04/20 05:00:37;;;;;;;5.43;4.40;;;;;;;;;;6148061;28;20262;-72
2022/04/20 05:04:04;;;;;;;5.73;5.23;;;;;;;;;;6149490;28;20254;-72
2022/04/20 05:07:25;;;;;;;5.03;4.63;;;;;;;;;;6136763;28;20231;-74
2022/04/20 05:10:57;;;;;;;6.27;5.00;;;;;;;;;;6141520;28;20238;-73
2022/04/20 05:14:20;;;;;;;7.30;4.97;;;;;;;;;;6151274;28;20254;-72
2022/04/20 05:17:44;;;;;;;6.07;4.83;;;;;;;;;;6136030;28;20231;-74
2022/04/20 05:21:06;;;;;;;7.40;4.80;;;;;;;;;;6134685;28;20258;-73
2022/04/20 05:24:27;;;;;;;5.10;4.70;;;;;;;;;;6138632;28;21840;-73
2022/04/20 05:27:47;;;;;;;5.10;4.43;;;;;;;;;;6138162;28;20219;-75
2022/04/20 05:31:11;;;;;;;5.23;4.73;;;;;;;;;;6142401;28;20570;-74
2022/04/20 05:34:34;;;;;;;5.23;4.73;;;;;;;;;;6126664;28;20234;-74
2022/04/20 05:41:52;;;;;;;5.13;4.63;;;;;;;;;;6137421;28;20234;-73
2022/04/20 05:45:19;;;;;;;8.97;5.17;;;;;;;;;;6149125;28;20235;-72
2022/04/20 05:48:47;;;;;;;7.23;5.07;;;;;;;;;;6145911;28;20666;-75
2022/04/20 05:52:09;;;;;;;4.80;4.33;;;;;;;;;;6131954;28;20242;-74
2022/04/20 05:55:32;;;;;;;6.97;4.50;;;;;;;;;;6142611;28;20258;-74
2022/04/20 05:58:53;;;;;;;8.67;4.77;;;;;;;;;;6139768;28;20693;-70
2022/04/20 06:02:15;;;;;;;4.33;3.93;;;;;;;;;;6134152;28;20235;-73
2022/04/20 06:05:36;;;;;;;6.37;3.40;;;;;;;;;;6149839;28;20257;-71
2022/04/20 06:09:17;;;;;;;4.93;4.43;;;;;;;;;;6152334;28;20230;-72
2022/04/20 06:12:48;;;;;;;3.90;3.27;;;;;;;;;;6138196;28;20242;-74
2022/04/20 06:16:38;;;;;;;4.20;3.80;;;;;;;;;;6134819;28;20238;-70
2022/04/20 06:20:05;;;;;;;5.37;3.77;;;;;;;;;;6138612;28;20500;-72
2022/04/20 06:23:32;;;;;;;7.65;4.28;;;;;;;;;;6130627;28;20795;-70
2022/04/20 06:27:10;;;;;;;12.60;5.20;;;;;;;;;;6145719;28;20235;-72
2022/04/20 06:30:39;;;;;;;6.70;3.13;;;;;;;;;;6133009;28;20606;-70
2022/04/20 06:34:22;;;;;;;3.23;3.03;;;;;;;;;;6122122;28;20227;-73
2022/04/20 06:37:53;;;;;;;4.53;3.87;;;;;;;;;;6148421;28;20230;-70
2022/04/20 06:41:34;;;;;;;3.87;3.50;;;;;;;;;;6136695;28;20235;-72
2022/04/20 06:45:18;;;;;;;3.47;3.17;;;;;;;;;;6134268;28;20246;-72
2022/04/20 06:49:00;;;;;;;4.33;3.43;;;;;;;;;;6130833;28;21423;-71
2022/04/20 06:59:50;;;;;;;4.80;3.77;;;;;;;;;;6151049;28;20227;-73
2022/04/20 07:03:38;;;;;;;4.10;3.30;;;;;;;;;;6154294;28;20238;-74
2022/04/20 07:07:15;;;;;;;4.73;4.33;;;;;;;;;;6150698;28;20494;-73
2022/04/20 07:10:54;;;;;;;4.77;3.67;;;;;;;;;;6144449;28;20527;-70
2022/04/20 07:14:14;;;;;;;3.93;3.60;;;;;;;;;;6150629;28;20234;-70
2022/04/20 07:17:35;;;;;;;6.70;4.30;;;;;;;;;;6133337;28;20226;-73
2022/04/20 07:21:34;;;;;;;4.47;3.47;;;;;;;;;;6150558;28;20318;-71
2022/04/20 07:25:17;;;;;;;4.67;4.20;;;;;;;;;;6155516;28;20357;-73
2022/04/20 07:28:51;;;;;;;5.43;3.87;;;;;;;;;;6147450;28;20231;-71
2022/04/20 07:32:14;;;;;;;3.83;3.43;;;;;;;;;;6151139;28;20648;-72
2022/04/20 07:35:37;;;;;;;4.03;3.60;;;;;;;;;;6155378;28;20234;-72
2022/04/20 07:39:20;;;;;;;3.13;2.87;;;;;;;;;;6156441;28;20235;-71
2022/04/20 07:43:00;;;;;;;3.23;2.93;;;;;;;;;;6153667;28;20224;-72
2022/04/20 07:46:33;;;;;;;5.40;3.73;;;;;;;;;;6150355;28;20329;-74
2022/04/20 07:50:23;;;;;;;3.00;2.37;;;;;;;;;;6144902;28;20781;-73
2022/04/20 07:53:45;;;;;;;4.97;3.10;;;;;;;;;;6159192;28;20234;-77
2022/04/20 07:57:15;;;;;;;3.40;2.90;;;;;;;;;;6156608;28;20288;-72
2022/04/20 08:00:49;;;;;;;3.97;2.20;;;;;;;;;;6154951;28;20246;-71
2022/04/20 08:04:27;;;;;;;3.90;2.10;;;;;;;;;;6155348;28;20234;-73
2022/04/20 08:07:54;;;;;;;2.63;2.43;;;;;;;;;;6129768;28;20230;-72
2022/04/20 08:11:14;;;;;;;3.00;2.70;;;;;;;;;;6146071;28;20510;-73
2022/04/20 08:14:35;;;;;;;5.50;2.30;;;;;;;;;;6152659;28;20238;-71
2022/04/20 08:18:19;;;;;;;2.60;2.40;;;;;;;;;;6137975;28;20234;-72
2022/04/20 08:22:02;;;;;;;3.43;2.70;;;;;;;;;;6153913;28;20601;-73
2022/04/20 08:25:23;;;;;;;3.27;2.97;;;;;;;;;;6154744;28;20241;-70
2022/04/20 08:28:44;;;;;;;3.43;2.50;;;;;;;;;;6150019;28;20688;-73
2022/04/20 08:32:05;;;;;;;2.70;2.47;;;;;;;;;;6153750;28;20222;-72
2022/04/20 08:35:27;;;;;;;3.37;2.73;;;;;;;;;;6154467;28;20230;-72
2022/04/20 08:38:48;;;;;;;2.43;2.20;;;;;;;;;;6152954;28;20226;-74
2022/04/20 08:42:11;;;;;;;2.50;2.30;;;;;;;;;;6152742;28;20636;-74
2022/04/20 08:45:37;;;;;;;2.87;2.47;;;;;;;;;;6154666;28;20540;-73
2022/04/20 08:48:57;;;;;;;2.90;2.00;;;;;;;;;;6150324;28;20226;-70
2022/04/20 08:52:38;;;;;;;2.80;2.47;;;;;;;;;;6154732;28;22448;-71
2022/04/20 08:59:34;;;;;;;3.17;2.87;;;;;;;;;;6155531;28;20859;-70
2022/04/20 09:02:56;;;;;;;2.87;2.17;;;;;;;;;;6141706;28;20341;-69
2022/04/20 09:06:17;;;;;;;2.60;2.13;;;;;;;;;;6139237;28;20692;-72
2022/04/20 09:09:39;;;;;;;3.10;2.53;;;;;;;;;;6142936;28;20234;-72
2022/04/20 09:13:04;;;;;;;3.30;1.97;;;;;;;;;;6148420;28;20777;-74
2022/04/20 09:16:31;;;;;;;4.13;2.53;;;;;;;;;;6119966;28;20226;-72
2022/04/20 09:19:53;;;;;;;2.50;2.30;;;;;;;;;;6150615;28;20227;-72
2022/04/20 09:23:14;;;;;;;2.77;2.57;;;;;;;;;;6154520;28;20242;-72
2022/04/20 09:26:49;;;;;;;4.33;2.10;;;;;;;;;;6149845;28;20549;-70
2022/04/20 09:30:11;;;;;;;3.53;2.73;;;;;;;;;;6156885;28;20793;-70
2022/04/20 09:33:41;;;;;;;3.03;2.43;;;;;;;;;;6155343;28;20620;-75
2022/04/20 09:37:15;;;;;;;3.67;2.90;;;;;;;;;;6154205;28;20230;-69
2022/04/20 09:40:37;;;;;;;2.60;2.17;;;;;;;;;;6154360;28;20542;-72
2022/04/20 09:44:09;;;;;;;3.13;2.87;;;;;;;;;;6147677;28;20254;-69
2022/04/20 09:51:09;;;;;;;2.17;2.00;;;;;;;;;;6133882;28;20627;-73
2022/04/20 09:54:30;;;;;;;4.83;2.80;;;;;;;;;;6151715;28;20227;-72
2022/04/20 09:57:50;;;;;;;2.60;2.20;;;;;;;;;;6144927;28;20234;-70
2022/04/20 10:01:24;;;;;;;2.30;2.10;;;;;;;;;;6147057;28;20234;-72
2022/04/20 10:04:45;;;;;;;2.43;1.90;;;;;;;;;;6147260;28;20242;-71
2022/04/20 10:08:05;;;;;;;3.60;2.27;;;;;;;;;;6153408;28;20887;-72
2022/04/20 10:11:27;;;;;;;1.97;1.87;;;;;;;;;;6153724;28;20230;-71
2022/04/20 10:18:31;;;;;;;2.57;1.90;;;;;;;;;;6159382;28;20778;-72
2022/04/20 10:21:54;;;;;;;2.77;1.87;;;;;;;;;;6162661;28;20234;-70
2022/04/20 10:25:14;;;;;;;4.60;2.67;;;;;;;;;;6162766;28;20242;-71
2022/04/20 10:28:37;;;;;;;2.80;1.83;;;;;;;;;;6155709;28;20726;-71
2022/04/20 10:32:00;;;;;;;4.17;1.93;;;;;;;;;;6159975;28;20245;-71
2022/04/20 10:35:22;;;;;;;4.43;1.87;;;;;;;;;;6136895;28;20243;-73
2022/04/20 10:38:50;;;;;;;3.77;2.27;;;;;;;;;;6155060;28;20601;-70
2022/04/20 10:42:25;;;;;;;3.20;1.80;;;;;;;;;;6138638;28;20227;-72
2022/04/20 10:46:01;;;;;;;2.00;1.60;;;;;;;;;;6135565;28;20519;-71
2022/04/20 10:49:21;;;;;;;3.00;2.37;;;;;;;;;;6135280;28;20351;-70
2022/04/20 10:52:49;;;;;;;2.43;2.03;;;;;;;;;;6137077;28;20322;-70
2022/04/20 10:56:09;;;;;;;3.33;2.43;;;;;;;;;;6138931;28;20235;-72
2022/04/20 10:59:30;;;;;;;1.80;1.70;;;;;;;;;;6135112;28;20231;-73
2022/04/20 11:02:52;;;;;;;2.07;1.63;;;;;;;;;;6140012;28;20235;-71
2022/04/20 11:06:12;;;;;;;1.90;1.80;;;;;;;;;;6137454;28;20223;-72
2022/04/20 11:09:56;;;;;;;2.97;2.13;;;;;;;;;;6134475;28;20520;-70
2022/04/20 11:20:59;;;;;;;2.20;2.10;;;;;;;;;;6132030;28;20246;-71
2022/04/20 11:24:26;;;;;;;3.13;2.00;;;;;;;;;;6156725;28;20684;-72
2022/04/20 11:27:48;;;;;;;2.67;2.20;;;;;;;;;;6159655;28;20309;-71
2022/04/20 11:31:09;;;;;;;1.50;1.40;;;;;;;;;;6155895;28;20256;-72
2022/04/20 11:34:33;;;;;;;2.42;2.13;;;;;;;;;;6162319;28;20230;-71
2022/04/20 11:37:57;;;;;;;3.42;2.40;;;;;;;;;;6155632;28;20235;-70
2022/04/20 11:41:19;;;;;;;2.15;1.95;;;;;;;;;;6152519;28;20235;-73
2022/04/20 11:44:41;;;;;;;2.55;2.35;;;;;;;;;;6142563;28;20235;-71
2022/04/20 11:48:15;;;;;;;5.15;1.52;;;;;;;;;;6152650;28;20507;-70
2022/04/20 11:51:38;;;;;;;2.92;1.55;;;;;;;;;;6146874;28;20238;-70
2022/04/20 11:55:04;;;;;;;2.65;1.50;;;;;;;;;;6134696;28;20306;-70
2022/04/20 11:58:24;;;;;;;10.38;2.20;;;;;;;;;;6145999;28;20536;-70
2022/04/20 12:01:47;;;;;;;1.70;1.33;;;;;;;;;;6128782;28;20223;-70
2022/04/20 12:05:09;;;;;;;3.90;1.85;;;;;;;;;;6149400;28;20233;-70
2022/04/20 12:08:30;;;;;;;1.60;1.50;;;;;;;;;;6155790;28;20592;-70
2022/04/20 12:11:52;;;;;;;3.35;1.50;;;;;;;;;;6161288;28;20226;-69
2022/04/20 12:15:13;;;;;;;2.38;1.90;;;;;;;;;;6162582;28;20268;-69
2022/04/20 12:18:36;;;;;;;2.72;1.80;;;;;;;;;;6162382;28;20254;-70
2022/04/20 12:22:03;;;;;;;2.45;1.50;;;;;;;;;;6164110;28;20608;-70
2022/04/20 12:25:24;;;;;;;1.80;1.38;;;;;;;;;;6158197;28;20230;-70
2022/04/20 12:28:45;;;;;;;1.35;1.15;;;;;;;;;;6158644;28;20559;-69
2022/04/20 12:32:07;;;;;;;3.70;1.70;;;;;;;;;;6150137;28;20251;-70
2022/04/20 12:35:29;;;;;;;1.70;1.50;;;;;;;;;;6139623;28;20227;-69
2022/04/20 12:38:54;;;;;;;1.67;1.50;;;;;;;;;;6101999;28;20231;-68
2022/04/20 12:42:17;;;;;;;1.60;1.30;;;;;;;;;;6120253;28;22580;-69
2022/04/20 12:45:41;;;;;;;2.17;1.40;;;;;;;;;;6111596;28;20269;-70
2022/04/20 12:49:02;;;;;;;1.48;1.38;;;;;;;;;;6121304;28;20334;-70
2022/04/20 12:52:27;;;;;;;1.83;1.60;;;;;;;;;;6122220;28;20234;-69
2022/04/20 13:03:11;;;;;;;1.63;1.52;;;;;;;;;;6132154;28;20224;-70
2022/04/20 13:06:32;;;;;;;2.75;1.13;;;;;;;;;;6156647;28;20230;-70
2022/04/20 13:09:53;;;;;;;1.63;1.52;;;;;;;;;;6158451;28;20258;-69
2022/04/20 13:13:14;;;;;;;1.75;1.65;;;;;;;;;;6130510;28;20239;-70
2022/04/20 13:16:39;;;;;;;1.60;1.35;;;;;;;;;;6139009;28;20317;-71
2022/04/20 13:19:59;;;;;;;3.35;1.20;;;;;;;;;;6127919;28;20808;-68
2022/04/20 13:23:20;;;;;;;1.48;1.38;;;;;;;;;;6123105;28;20231;-70
2022/04/20 13:30:20;;;;;;;1.10;1.00;;;;;;;;;;6141761;28;20323;-70
2022/04/20 13:33:42;;;;;;;1.05;0.90;;;;;;;;;;6157994;28;20499;-70
2022/04/20 13:37:03;;;;;;;1.33;1.05;;;;;;;;;;6140506;28;20223;-70
2022/04/20 13:40:24;;;;;;;1.83;1.23;;;;;;;;;;6153738;28;20227;-70
2022/04/20 13:43:46;;;;;;;2.33;1.60;;;;;;;;;;6160600;28;20242;-70
2022/04/20 13:47:06;;;;;;;2.85;1.58;;;;;;;;;;6163392;28;20234;-70
2022/04/20 13:50:26;;;;;;;3.38;1.05;;;;;;;;;;6158529;28;20230;-71
2022/04/20 13:53:47;;;;;;;2.03;1.02;;;;;;;;;;6156121;28;20669;-70
2022/04/20 13:57:08;;;;;;;2.05;1.00;;;;;;;;;;6158889;28;20226;-70
2022/04/20 14:00:30;;;;;;;1.20;1.10;;;;;;;;;;6155116;28;20230;-70
2022/04/20 14:03:51;;;;;;;0.93;0.90;;;;;;;;;;6158025;28;20234;-70
2022/04/20 14:07:11;;;;;;;1.45;1.35;;;;;;;;;;6156661;28;20259;-71
2022/04/20 14:10:31;;;;;;;2.38;1.35;;;;;;;;;;6163241;28;20223;-71
2022/04/20 14:13:52;;;;;;;1.40;1.05;;;;;;;;;;6163418;28;20230;-71
2022/04/20 14:17:15;;;;;;;1.73;1.63;;;;;;;;;;6162367;28;20262;-70
2022/04/20 14:20:36;;;;;;;1.35;1.25;;;;;;;;;;6157155;28;22212;-69
2022/04/20 14:23:57;;;;;;;1.65;1.30;;;;;;;;;;6157037;28;20234;-70
2022/04/20 14:34:42;;;;;;;1.50;1.27;;;;;;;;;;6156282;28;20242;-70
2022/04/20 14:38:04;;;;;;;1.50;1.40;;;;;;;;;;6166328;28;20234;-69
2022/04/20 14:41:24;;;;;;;2.08;1.02;;;;;;;;;;6166221;28;20293;-71
2022/04/20 14:44:46;;;;;;;1.00;1.00;;;;;;;;;;6164061;28;20715;-69
2022/04/20 14:48:06;;;;;;;1.85;1.05;;;;;;;;;;6164349;28;20234;-69
2022/04/20 14:51:28;;;;;;;2.15;1.20;;;;;;;;;;6158474;28;20230;-69
2022/04/20 14:54:49;;;;;;;0.82;0.82;;;;;;;;;;6159751;28;20226;-69
2022/04/20 14:58:09;;;;;;;3.00;1.80;;;;;;;;;;6165985;28;20223;-70
2022/04/20 15:01:30;;;;;;;2.22;1.63;;;;;;;;;;6162594;28;20239;-69
2022/04/20 15:04:51;;;;;;;1.48;1.38;;;;;;;;;;6159527;28;20783;-70
2022/04/20 15:08:13;;;;;;;1.30;1.20;;;;;;;;;;6161312;28;20254;-70
2022/04/20 15:11:35;;;;;;;1.02;1.00;;;;;;;;;;6163149;28;20254;-69
2022/04/20 15:14:58;;;;;;;1.30;1.20;;;;;;;;;;6163945;28;20715;-71
2022/04/20 15:18:19;;;;;;;1.25;1.15;;;;;;;;;;6163943;28;20227;-71
2022/04/20 15:21:39;;;;;;;0.90;0.90;;;;;;;;;;6160618;28;20557;-70
2022/04/20 15:25:01;;;;;;;1.15;0.63;;;;;;;;;;6157683;28;20226;-69
2022/04/20 15:28:24;;;;;;;0.80;0.80;;;;;;;;;;6143507;28;20238;-68
2022/04/20 15:31:44;;;;;;;1.75;0.95;;;;;;;;;;6150882;28;20223;-70
2022/04/20 15:35:09;;;;;;;1.45;1.15;;;;;;;;;;6153969;28;20230;-69
2022/04/20 15:38:30;;;;;;;1.75;0.73;;;;;;;;;;6155294;28;20299;-69
2022/04/20 15:41:52;;;;;;;1.10;0.73;;;;;;;;;;6156222;28;20707;-69
2022/04/20 15:45:14;;;;;;;0.82;0.70;;;;;;;;;;6150195;28;20310;-70
2022/04/20 15:48:35;;;;;;;1.48;1.38;;;;;;;;;;6154692;28;20685;-68
2022/04/20 15:51:56;;;;;;;2.45;1.25;;;;;;;;;;6147362;28;20547;-73
2022/04/20 16:02:34;;;;;;;1.70;1.40;;;;;;;;;;6152437;28;20234;-71
2022/04/20 16:05:54;;;;;;;3.95;2.25;;;;;;;;;;6148767;28;20319;-72
2022/04/20 16:09:15;;;;;;;1.88;1.50;;;;;;;;;;6150175;28;20242;-71
2022/04/20 16:12:37;;;;;;;3.03;1.65;;;;;;;;;;6152924;28;20226;-72
2022/04/20 16:15:59;;;;;;;2.08;1.88;;;;;;;;;;6155984;28;20271;-71
2022/04/20 16:19:20;;;;;;;2.17;1.98;;;;;;;;;;6154924;28;20226;-71
2022/04/20 16:22:40;;;;;;;3.33;2.10;;;;;;;;;;6156643;28;20223;-71
2022/04/20 16:26:01;;;;;;;3.67;2.92;;;;;;;;;;6137616;28;21126;-72
2022/04/20 16:29:22;;;;;;;4.20;3.85;;;;;;;;;;6152649;28;20243;-70
2022/04/20 16:32:43;;;;;;;3.97;2.95;;;;;;;;;;6145917;28;20672;-72
2022/04/20 16:36:04;;;;;;;3.40;3.08;;;;;;;;;;6152064;28;20234;-72
2022/04/20 16:39:25;;;;;;;4.03;3.72;;;;;;;;;;6147740;28;20239;-72
2022/04/20 16:42:46;;;;;;;3.90;3.60;;;;;;;;;;6149437;28;20251;-72
2022/04/20 16:46:06;;;;;;;4.40;3.75;;;;;;;;;;6149162;28;20235;-71
2022/04/20 16:49:28;;;;;;;3.15;2.90;;;;;;;;;;6148082;28;20263;-72
2022/04/20 16:52:49;;;;;;;8.82;5.03;;;;;;;;;;6150709;28;20234;-72
2022/04/20 16:56:10;;;;;;;4.93;4.53;;;;;;;;;;6157439;28;20631;-72
2022/04/20 16:59:31;;;;;;;4.82;4.32;;;;;;;;;;6156501;28;20234;-72
2022/04/20 17:02:51;;;;;;;4.35;3.95;;;;;;;;;;6159906;28;20320;-71
2022/04/20 17:06:13;;;;;;;5.25;4.70;;;;;;;;;;6149492;28;20246;-70
2022/04/20 17:09:34;;;;;;;3.67;3.38;;;;;;;;;;6156211;28;20238;-70
2022/04/20 17:12:55;;;;;;;6.33;4.40;;;;;;;;;;6153445;28;20231;-71
2022/04/20 17:16:15;;;;;;;7.85;5.30;;;;;;;;;;6156833;28;20226;-70
2022/04/20 17:19:37;;;;;;;4.38;3.90;;;;;;;;;;6157739;28;20238;-70
2022/04/20 17:26:37;;;;;;;3.40;3.10;;;;;;;;;;6159622;28;20238;-70
2022/04/20 17:29:57;;;;;;;6.22;3.33;;;;;;;;;;6150608;28;20238;-69
2022/04/20 17:33:18;;;;;;;4.57;4.17;;;;;;;;;;6150809;28;20635;-69
2022/04/20 17:36:43;;;;;;;4.97;4.13;;;;;;;;;;6163828;28;20226;-68
2022/04/20 17:40:05;;;;;;;7.45;5.20;;;;;;;;;;6146835;28;22185;-69
2022/04/20 17:43:26;;;;;;;9.27;8.13;;;;;;;;;;6147207;28;20235;-68
2022/04/20 17:46:50;;;;;;;7.63;5.05;;;;;;;;;;6149632;28;20295;-68
2022/04/20 17:50:10;;;;;;;7.23;5.90;;;;;;;;;;6150047;28;20234;-67
2022/04/20 17:53:31;;;;;;;11.60;10.43;;;;;;;;;;6149010;28;20254;-68
2022/04/20 17:56:53;;;;;;;27.48;24.67;;;;;;;;;;6151562;28;20239;-67
2022/04/20 18:00:15;;;;;;;13.40;12.13;;;;;;;;;;6149325;28;20230;-69
2022/04/20 18:03:36;;;;;;;9.17;8.23;;;;;;;;;;6149634;28;22728;-68
2022/04/20 18:06:57;;;;;;;7.70;4.63;;;;;;;;;;6151152;28;20314;-69
2022/04/20 18:10:17;;;;;;;5.20;4.27;;;;;;;;;;6156184;28;20231;-71
2022/04/20 18:13:40;;;;;;;6.47;5.90;;;;;;;;;;6154884;28;20250;-69
2022/04/20 18:17:01;;;;;;;8.17;7.43;;;;;;;;;;6152830;28;20262;-69
2022/04/20 18:20:22;;;;;;;4.13;3.37;;;;;;;;;;6159821;28;20596;-75
2022/04/20 18:23:42;;;;;;;3.77;3.37;;;;;;;;;;6163015;28;20531;-75
2022/04/20 18:27:04;;;;;;;4.77;3.90;;;;;;;;;;6168037;28;20234;-74
2022/04/20 18:30:28;;;;;;;7.00;5.93;;;;;;;;;;6165334;28;20325;-71
2022/04/20 18:33:48;;;;;;;6.50;5.13;;;;;;;;;;6161185;28;20604;-72
2022/04/20 18:37:09;;;;;;;5.47;4.93;;;;;;;;;;6163913;28;20631;-71
2022/04/20 18:40:30;;;;;;;3.10;2.83;;;;;;;;;;6161521;28;20230;-73
2022/04/20 18:43:50;;;;;;;4.37;3.90;;;;;;;;;;6162061;28;20230;-72
2022/04/20 18:47:12;;;;;;;2.50;2.30;;;;;;;;;;6164922;28;20258;-74
2022/04/20 18:50:33;;;;;;;4.67;4.30;;;;;;;;;;6164274;28;20230;-72
2022/04/20 18:57:49;;;;;;;4.83;3.50;;;;;;;;;;6162186;28;20226;-74
2022/04/20 19:01:10;;;;;;;2.77;2.43;;;;;;;;;;6153700;28;20238;-73
2022/04/20 19:04:51;;;;;;;7.20;4.77;;;;;;;;;;6148143;28;20230;-73
2022/04/20 19:08:12;;;;;;;7.57;6.77;;;;;;;;;;6150670;28;20235;-73
2022/04/20 19:11:32;;;;;;;7.17;4.63;;;;;;;;;;6160032;28;20222;-73
2022/04/20 19:14:53;;;;;;;9.30;8.40;;;;;;;;;;6155987;28;20235;-74
2022/04/20 19:18:14;;;;;;;8.07;7.27;;;;;;;;;;6160766;28;20231;-74
2022/04/20 19:21:36;;;;;;;9.20;8.17;;;;;;;;;;6160301;28;20230;-74
2022/04/20 19:24:56;;;;;;;18.17;16.27;;;;;;;;;;6162262;28;20234;-74
2022/04/20 19:28:17;;;;;;;21.17;18.97;;;;;;;;;;6156133;28;20329;-71
2022/04/20 19:31:37;;;;;;;7.50;6.80;;;;;;;;;;6156714;28;20628;-74
2022/04/20 19:34:58;;;;;;;7.10;6.30;;;;;;;;;;6158530;28;20231;-74
2022/04/20 19:38:20;;;;;;;5.70;5.20;;;;;;;;;;6163365;28;20242;-74
2022/04/20 19:41:41;;;;;;;3.93;3.53;;;;;;;;;;6161986;28;20605;-75
2022/04/20 19:45:02;;;;;;;3.10;2.80;;;;;;;;;;6157092;28;20222;-73
2022/04/20 19:48:23;;;;;;;5.87;3.23;;;;;;;;;;6141716;28;20253;-72
2022/04/20 19:51:44;;;;;;;3.37;2.60;;;;;;;;;;6155613;28;20226;-75
2022/04/20 19:55:07;;;;;;;3.23;2.50;;;;;;;;;;6152360;28;20235;-74
2022/04/20 19:58:30;;;;;;;3.17;2.87;;;;;;;;;;6156121;28;20823;-73
2022/04/20 20:01:51;;;;;;;5.90;4.17;;;;;;;;;;6159127;28;20238;-74
2022/04/20 20:05:12;;;;;;;4.00;3.70;;;;;;;;;;6156878;28;20317;-73
2022/04/20 20:08:32;;;;;;;6.13;3.43;;;;;;;;;;6163527;28;20226;-73
2022/04/20 20:11:54;;;;;;;4.00;3.43;;;;;;;;;;6162899;28;20230;-75
2022/04/20 20:15:19;;;;;;;4.53;3.47;;;;;;;;;;6160312;28;20235;-73
2022/04/20 20:18:40;;;;;;;4.60;3.50;;;;;;;;;;6158089;28;20238;-74
2022/04/20 20:22:00;;;;;;;3.70;3.23;;;;;;;;;;6155019;28;20223;-74
2022/04/20 20:32:38;;;;;;;4.13;3.67;;;;;;;;;;6165789;28;20234;-73
2022/04/20 20:35:58;;;;;;;4.70;4.20;;;;;;;;;;6162304;28;20234;-73
2022/04/20 20:39:19;;;;;;;4.90;3.57;;;;;;;;;;6166091;28;20238;-73
2022/04/20 20:42:39;;;;;;;5.47;3.80;;;;;;;;;;6160310;28;20239;-73
2022/04/20 20:46:01;;;;;;;4.70;3.60;;;;;;;;;;6162984;28;20895;-74
2022/04/20 20:53:00;;;;;;;3.97;3.43;;;;;;;;;;6163672;28;20430;-73
2022/04/20 20:56:20;;;;;;;3.33;3.03;;;;;;;;;;6159499;28;20238;-75
2022/04/20 20:59:40;;;;;;;4.20;3.33;;;;;;;;;;6146809;28;20230;-75
2022/04/20 21:03:02;;;;;;;3.97;3.57;;;;;;;;;;6150711;28;20231;-74
2022/04/20 21:06:25;;;;;;;4.47;4.07;;;;;;;;;;6149480;28;20684;-73
2022/04/20 21:09:45;;;;;;;3.77;3.40;;;;;;;;;;6148702;28;20835;-72
2022/04/20 21:13:06;;;;;;;4.30;3.90;;;;;;;;;;6153555;28;20357;-72
2022/04/20 21:16:27;;;;;;;4.67;4.27;;;;;;;;;;6154444;28;20230;-71
2022/04/20 21:19:49;;;;;;;5.47;4.10;;;;;;;;;;6152399;28;20605;-71
2022/04/20 21:23:09;;;;;;;4.40;4.00;;;;;;;;;;6155360;28;20629;-71
2022/04/20 21:26:31;;;;;;;5.17;3.67;;;;;;;;;;6155350;28;20668;-72
2022/04/20 21:29:52;;;;;;;4.20;3.80;;;;;;;;;;6153499;28;21522;-73
2022/04/20 21:33:12;;;;;;;6.17;3.70;;;;;;;;;;6153088;28;20658;-72
2022/04/20 21:36:34;;;;;;;4.20;3.90;;;;;;;;;;6155799;28;20230;-72
2022/04/20 21:39:54;;;;;;;4.33;3.93;;;;;;;;;;6159839;28;20230;-71
2022/04/20 21:43:17;;;;;;;4.73;4.03;;;;;;;;;;6149002;28;20231;-70